sensor_id;sensor_type;location;lat;lon;timestamp;temperature;humidity
20735;DHT22;10528;52.124;5.196;2023-05-07T00:01:22;15.40;99.90
20735;DHT22;10528;52.124;5.196;2023-05-07T00:03:48;15.40;99.90
20735;DHT22;10528;52.124;5.196;2023-05-07T00:06:16;15.30;99.90
20735;DHT22;10528;52.124;5.196;2023-05-07T00:08:42;15.30;99.90
20735;DHT22;10528;52.124;5.196;2023-05-07T00:11:09;15.30;99.90
20735;DHT22;10528;52.124;5.196;2023-05-07T00:13:36;15.30;99.90
20735;DHT22;10528;52.124;5.196;2023-05-07T00:16:03;15.30;99.90
20735;DHT22;10528;52.124;5.196;2023-05-07T00:18:31;15.30;99.90
20735;DHT22;10528;52.124;5.196;2023-05-07T00:20:58;15.30;99.90
20735;DHT22;10528;52.124;5.196;2023-05-07T00:23:24;15.30;99.90
20735;DHT22;10528;52.124;5.196;2023-05-07T00:25:51;15.20;99.90
20735;DHT22;10528;52.124;5.196;2023-05-07T00:28:18;15.30;99.90
20735;DHT22;10528;52.124;5.196;2023-05-07T00:30:45;15.30;99.90
20735;DHT22;10528;52.124;5.196;2023-05-07T00:33:11;15.30;99.90
20735;DHT22;10528;52.124;5.196;2023-05-07T00:35:38;15.30;99.90
20735;DHT22;10528;52.124;5.196;2023-05-07T00:38:05;15.30;99.90
20735;DHT22;10528;52.124;5.196;2023-05-07T00:40:32;15.30;99.90
20735;DHT22;10528;52.124;5.196;2023-05-07T00:42:59;15.30;99.90
20735;DHT22;10528;52.124;5.196;2023-05-07T00:45:27;15.30;99.90
20735;DHT22;10528;52.124;5.196;2023-05-07T00:47:56;15.30;99.90
20735;DHT22;10528;52.124;5.196;2023-05-07T00:50:25;15.30;99.90
20735;DHT22;10528;52.124;5.196;2023-05-07T00:52:54;15.30;99.90
20735;DHT22;10528;52.124;5.196;2023-05-07T00:55:22;15.30;99.90
20735;DHT22;10528;52.124;5.196;2023-05-07T00:57:50;15.30;99.90
20735;DHT22;10528;52.124;5.196;2023-05-07T01:00:18;15.30;99.90
20735;DHT22;10528;52.124;5.196;2023-05-07T01:02:46;15.30;99.90
20735;DHT22;10528;52.124;5.196;2023-05-07T01:05:16;15.30;99.90
20735;DHT22;10528;52.124;5.196;2023-05-07T01:07:46;15.30;99.90
20735;DHT22;10528;52.124;5.196;2023-05-07T01:10:14;15.20;99.90
20735;DHT22;10528;52.124;5.196;2023-05-07T01:12:42;15.20;99.90
20735;DHT22;10528;52.124;5.196;2023-05-07T01:15:11;15.20;99.90
20735;DHT22;10528;52.124;5.196;2023-05-07T01:17:39;15.30;99.90
20735;DHT22;10528;52.124;5.196;2023-05-07T01:20:14;15.30;99.90
20735;DHT22;10528;52.124;5.196;2023-05-07T01:22:43;15.30;99.90
20735;DHT22;10528;52.124;5.196;2023-05-07T01:25:10;15.30;99.90
20735;DHT22;10528;52.124;5.196;2023-05-07T01:27:42;15.30;99.90
20735;DHT22;10528;52.124;5.196;2023-05-07T01:30:09;15.30;99.90
20735;DHT22;10528;52.124;5.196;2023-05-07T01:32:48;15.30;99.90
20735;DHT22;10528;52.124;5.196;2023-05-07T01:35:32;15.30;99.90
20735;DHT22;10528;52.124;5.196;2023-05-07T01:38:05;15.30;99.90
20735;DHT22;10528;52.124;5.196;2023-05-07T01:40:33;15.30;99.90
20735;DHT22;10528;52.124;5.196;2023-05-07T01:43:02;15.30;99.90
20735;DHT22;10528;52.124;5.196;2023-05-07T01:45:31;15.30;99.90
20735;DHT22;10528;52.124;5.196;2023-05-07T01:47:59;15.30;99.90
20735;DHT22;10528;52.124;5.196;2023-05-07T01:50:27;15.30;99.90
20735;DHT22;10528;52.124;5.196;2023-05-07T01:52:54;15.30;99.90
20735;DHT22;10528;52.124;5.196;2023-05-07T01:55:22;15.30;99.90
20735;DHT22;10528;52.124;5.196;2023-05-07T01:57:50;15.20;99.90
20735;DHT22;10528;52.124;5.196;2023-05-07T02:00:17;15.30;99.90
20735;DHT22;10528;52.124;5.196;2023-05-07T02:02:45;15.20;99.90
20735;DHT22;10528;52.124;5.196;2023-05-07T02:05:25;15.30;99.90
20735;DHT22;10528;52.124;5.196;2023-05-07T02:07:58;15.30;99.90
20735;DHT22;10528;52.124;5.196;2023-05-07T02:10:27;15.30;99.90
20735;DHT22;10528;52.124;5.196;2023-05-07T02:12:53;15.30;99.90
20735;DHT22;10528;52.124;5.196;2023-05-07T02:15:20;15.30;99.90
20735;DHT22;10528;52.124;5.196;2023-05-07T02:18:08;15.20;99.90
20735;DHT22;10528;52.124;5.196;2023-05-07T02:20:35;15.20;99.90
20735;DHT22;10528;52.124;5.196;2023-05-07T02:23:02;15.20;99.90
20735;DHT22;10528;52.124;5.196;2023-05-07T02:25:29;15.30;99.90
20735;DHT22;10528;52.124;5.196;2023-05-07T02:27:57;15.30;99.90
20735;DHT22;10528;52.124;5.196;2023-05-07T02:30:34;15.30;99.90
20735;DHT22;10528;52.124;5.196;2023-05-07T02:33:01;15.30;99.90
20735;DHT22;10528;52.124;5.196;2023-05-07T02:35:28;15.20;99.90
20735;DHT22;10528;52.124;5.196;2023-05-07T02:37:55;15.20;99.90
20735;DHT22;10528;52.124;5.196;2023-05-07T02:40:24;15.20;99.90
20735;DHT22;10528;52.124;5.196;2023-05-07T02:42:51;15.20;99.90
20735;DHT22;10528;52.124;5.196;2023-05-07T02:45:18;15.20;99.90
20735;DHT22;10528;52.124;5.196;2023-05-07T02:47:46;15.20;99.90
20735;DHT22;10528;52.124;5.196;2023-05-07T02:50:13;15.10;99.90
20735;DHT22;10528;52.124;5.196;2023-05-07T02:52:41;15.20;99.90
20735;DHT22;10528;52.124;5.196;2023-05-07T02:55:08;15.20;99.90
20735;DHT22;10528;52.124;5.196;2023-05-07T02:57:35;15.10;99.90
20735;DHT22;10528;52.124;5.196;2023-05-07T03:00:16;15.10;99.90
20735;DHT22;10528;52.124;5.196;2023-05-07T03:02:52;15.00;99.90
20735;DHT22;10528;52.124;5.196;2023-05-07T03:05:19;15.10;99.90
20735;DHT22;10528;52.124;5.196;2023-05-07T03:07:46;15.00;99.90
20735;DHT22;10528;52.124;5.196;2023-05-07T03:10:14;15.10;99.90
20735;DHT22;10528;52.124;5.196;2023-05-07T03:12:41;15.10;99.90
20735;DHT22;10528;52.124;5.196;2023-05-07T03:15:10;15.10;99.90
20735;DHT22;10528;52.124;5.196;2023-05-07T03:17:40;15.10;99.90
20735;DHT22;10528;52.124;5.196;2023-05-07T03:20:08;15.10;99.90
20735;DHT22;10528;52.124;5.196;2023-05-07T03:22:37;15.10;99.90
20735;DHT22;10528;52.124;5.196;2023-05-07T03:25:04;15.00;99.90
20735;DHT22;10528;52.124;5.196;2023-05-07T03:27:32;15.00;99.90
20735;DHT22;10528;52.124;5.196;2023-05-07T03:29:59;15.00;99.90
20735;DHT22;10528;52.124;5.196;2023-05-07T03:32:27;14.90;99.90
20735;DHT22;10528;52.124;5.196;2023-05-07T03:34:53;14.90;99.90
20735;DHT22;10528;52.124;5.196;2023-05-07T03:37:21;14.90;99.90
20735;DHT22;10528;52.124;5.196;2023-05-07T03:39:48;14.80;99.90
20735;DHT22;10528;52.124;5.196;2023-05-07T03:42:15;14.80;99.90
20735;DHT22;10528;52.124;5.196;2023-05-07T03:44:42;14.80;99.90
20735;DHT22;10528;52.124;5.196;2023-05-07T03:47:09;14.80;99.90
20735;DHT22;10528;52.124;5.196;2023-05-07T03:49:37;14.70;99.90
20735;DHT22;10528;52.124;5.196;2023-05-07T03:52:04;14.80;99.90
20735;DHT22;10528;52.124;5.196;2023-05-07T03:54:32;14.70;99.90
20735;DHT22;10528;52.124;5.196;2023-05-07T03:56:59;14.80;99.90
20735;DHT22;10528;52.124;5.196;2023-05-07T03:59:26;14.80;99.90
20735;DHT22;10528;52.124;5.196;2023-05-07T04:01:53;14.80;99.90
20735;DHT22;10528;52.124;5.196;2023-05-07T04:04:22;14.80;99.90
20735;DHT22;10528;52.124;5.196;2023-05-07T04:06:49;14.80;99.90
20735;DHT22;10528;52.124;5.196;2023-05-07T04:09:16;14.80;99.90
20735;DHT22;10528;52.124;5.196;2023-05-07T04:11:45;14.80;99.90
20735;DHT22;10528;52.124;5.196;2023-05-07T04:14:12;14.90;99.90
20735;DHT22;10528;52.124;5.196;2023-05-07T04:16:38;14.90;99.90
20735;DHT22;10528;52.124;5.196;2023-05-07T04:19:07;14.80;99.90
20735;DHT22;10528;52.124;5.196;2023-05-07T04:21:34;14.90;99.90
20735;DHT22;10528;52.124;5.196;2023-05-07T04:24:03;15.00;99.90
20735;DHT22;10528;52.124;5.196;2023-05-07T04:26:30;15.00;99.90
20735;DHT22;10528;52.124;5.196;2023-05-07T04:28:58;15.00;99.90
20735;DHT22;10528;52.124;5.196;2023-05-07T04:31:30;15.00;99.90
20735;DHT22;10528;52.124;5.196;2023-05-07T04:33:58;15.00;99.90
20735;DHT22;10528;52.124;5.196;2023-05-07T04:36:24;15.00;99.90
20735;DHT22;10528;52.124;5.196;2023-05-07T04:39:00;15.00;99.90
20735;DHT22;10528;52.124;5.196;2023-05-07T04:41:28;14.90;99.90
20735;DHT22;10528;52.124;5.196;2023-05-07T04:43:55;15.00;99.90
20735;DHT22;10528;52.124;5.196;2023-05-07T04:46:23;15.00;99.90
20735;DHT22;10528;52.124;5.196;2023-05-07T04:48:53;15.00;99.90
20735;DHT22;10528;52.124;5.196;2023-05-07T04:51:19;15.00;99.90
20735;DHT22;10528;52.124;5.196;2023-05-07T04:53:47;15.00;99.90
20735;DHT22;10528;52.124;5.196;2023-05-07T04:56:14;15.00;99.90
20735;DHT22;10528;52.124;5.196;2023-05-07T04:58:43;15.00;99.90
20735;DHT22;10528;52.124;5.196;2023-05-07T05:01:10;15.00;99.90
20735;DHT22;10528;52.124;5.196;2023-05-07T05:03:38;15.00;99.90
20735;DHT22;10528;52.124;5.196;2023-05-07T05:06:07;15.00;99.90
20735;DHT22;10528;52.124;5.196;2023-05-07T05:08:34;15.00;99.90
20735;DHT22;10528;52.124;5.196;2023-05-07T05:11:02;15.00;99.90
20735;DHT22;10528;52.124;5.196;2023-05-07T05:13:31;15.10;99.90
20735;DHT22;10528;52.124;5.196;2023-05-07T05:15:59;15.20;99.90
20735;DHT22;10528;52.124;5.196;2023-05-07T05:18:28;15.20;99.90
20735;DHT22;10528;52.124;5.196;2023-05-07T05:20:55;15.20;99.90
20735;DHT22;10528;52.124;5.196;2023-05-07T05:23:22;15.20;99.90
20735;DHT22;10528;52.124;5.196;2023-05-07T05:25:49;15.20;99.90
20735;DHT22;10528;52.124;5.196;2023-05-07T05:28:16;15.10;99.90
20735;DHT22;10528;52.124;5.196;2023-05-07T05:30:43;15.10;99.90
20735;DHT22;10528;52.124;5.196;2023-05-07T05:33:10;15.10;99.90
20735;DHT22;10528;52.124;5.196;2023-05-07T05:35:37;15.00;99.90
20735;DHT22;10528;52.124;5.196;2023-05-07T05:38:09;15.10;99.90
20735;DHT22;10528;52.124;5.196;2023-05-07T05:40:37;15.10;99.90
20735;DHT22;10528;52.124;5.196;2023-05-07T05:43:05;15.20;99.90
20735;DHT22;10528;52.124;5.196;2023-05-07T05:45:32;15.20;99.90
20735;DHT22;10528;52.124;5.196;2023-05-07T05:48:00;15.20;99.90
20735;DHT22;10528;52.124;5.196;2023-05-07T05:50:27;15.20;99.90
20735;DHT22;10528;52.124;5.196;2023-05-07T05:52:54;15.40;99.90
20735;DHT22;10528;52.124;5.196;2023-05-07T05:55:21;15.30;99.90
20735;DHT22;10528;52.124;5.196;2023-05-07T05:57:48;15.30;99.90
20735;DHT22;10528;52.124;5.196;2023-05-07T06:00:16;15.20;99.90
20735;DHT22;10528;52.124;5.196;2023-05-07T06:02:46;15.10;99.90
20735;DHT22;10528;52.124;5.196;2023-05-07T06:05:19;15.20;99.90
20735;DHT22;10528;52.124;5.196;2023-05-07T06:07:49;15.30;99.90
20735;DHT22;10528;52.124;5.196;2023-05-07T06:10:17;15.10;99.90
20735;DHT22;10528;52.124;5.196;2023-05-07T06:12:44;15.10;99.90
20735;DHT22;10528;52.124;5.196;2023-05-07T06:15:12;15.10;99.90
20735;DHT22;10528;52.124;5.196;2023-05-07T06:17:40;15.10;99.90
20735;DHT22;10528;52.124;5.196;2023-05-07T06:20:09;15.20;99.90
20735;DHT22;10528;52.124;5.196;2023-05-07T06:22:38;15.20;99.90
20735;DHT22;10528;52.124;5.196;2023-05-07T06:25:05;15.20;99.90
20735;DHT22;10528;52.124;5.196;2023-05-07T06:27:32;15.30;99.90
20735;DHT22;10528;52.124;5.196;2023-05-07T06:29:59;15.20;99.90
20735;DHT22;10528;52.124;5.196;2023-05-07T06:32:26;15.30;99.90
20735;DHT22;10528;52.124;5.196;2023-05-07T06:34:54;15.40;99.90
20735;DHT22;10528;52.124;5.196;2023-05-07T06:37:22;15.40;99.90
20735;DHT22;10528;52.124;5.196;2023-05-07T06:39:55;15.50;99.90
20735;DHT22;10528;52.124;5.196;2023-05-07T06:42:25;15.50;99.90
20735;DHT22;10528;52.124;5.196;2023-05-07T06:44:57;15.60;99.90
20735;DHT22;10528;52.124;5.196;2023-05-07T06:47:25;15.60;99.90
20735;DHT22;10528;52.124;5.196;2023-05-07T06:49:54;15.60;99.90
20735;DHT22;10528;52.124;5.196;2023-05-07T06:52:24;15.80;99.90
20735;DHT22;10528;52.124;5.196;2023-05-07T06:54:52;15.80;99.90
20735;DHT22;10528;52.124;5.196;2023-05-07T06:57:21;15.80;99.90
20735;DHT22;10528;52.124;5.196;2023-05-07T06:59:48;16.00;99.90
20735;DHT22;10528;52.124;5.196;2023-05-07T07:02:15;16.00;99.90
20735;DHT22;10528;52.124;5.196;2023-05-07T07:04:44;16.00;99.90
20735;DHT22;10528;52.124;5.196;2023-05-07T07:07:12;16.20;99.90
20735;DHT22;10528;52.124;5.196;2023-05-07T07:09:42;16.30;99.90
20735;DHT22;10528;52.124;5.196;2023-05-07T07:12:09;16.20;99.90
20735;DHT22;10528;52.124;5.196;2023-05-07T07:14:38;16.20;99.90
20735;DHT22;10528;52.124;5.196;2023-05-07T07:17:05;16.30;99.90
20735;DHT22;10528;52.124;5.196;2023-05-07T07:19:33;16.30;99.90
20735;DHT22;10528;52.124;5.196;2023-05-07T07:22:01;16.20;99.90
20735;DHT22;10528;52.124;5.196;2023-05-07T07:24:29;16.30;99.90
20735;DHT22;10528;52.124;5.196;2023-05-07T07:26:59;16.50;99.90
20735;DHT22;10528;52.124;5.196;2023-05-07T07:29:27;16.60;99.90
20735;DHT22;10528;52.124;5.196;2023-05-07T07:31:54;16.90;99.90
20735;DHT22;10528;52.124;5.196;2023-05-07T07:34:22;17.00;99.90
20735;DHT22;10528;52.124;5.196;2023-05-07T07:36:49;17.00;99.90
20735;DHT22;10528;52.124;5.196;2023-05-07T07:39:18;17.10;99.90
20735;DHT22;10528;52.124;5.196;2023-05-07T07:41:47;17.30;99.90
20735;DHT22;10528;52.124;5.196;2023-05-07T07:44:15;17.50;99.90
20735;DHT22;10528;52.124;5.196;2023-05-07T07:46:46;17.40;99.90
20735;DHT22;10528;52.124;5.196;2023-05-07T07:49:14;17.20;99.90
20735;DHT22;10528;52.124;5.196;2023-05-07T07:51:42;17.30;99.90
20735;DHT22;10528;52.124;5.196;2023-05-07T07:54:10;17.30;99.90
20735;DHT22;10528;52.124;5.196;2023-05-07T07:56:38;17.30;99.90
20735;DHT22;10528;52.124;5.196;2023-05-07T07:59:06;17.00;99.90
20735;DHT22;10528;52.124;5.196;2023-05-07T08:01:36;17.00;99.90
20735;DHT22;10528;52.124;5.196;2023-05-07T08:04:04;16.80;99.90
20735;DHT22;10528;52.124;5.196;2023-05-07T08:06:35;16.90;99.90
20735;DHT22;10528;52.124;5.196;2023-05-07T08:09:02;16.90;99.90
20735;DHT22;10528;52.124;5.196;2023-05-07T08:11:30;16.90;99.90
20735;DHT22;10528;52.124;5.196;2023-05-07T08:13:57;16.90;99.90
20735;DHT22;10528;52.124;5.196;2023-05-07T08:16:24;17.00;99.90
20735;DHT22;10528;52.124;5.196;2023-05-07T08:18:52;16.90;99.90
20735;DHT22;10528;52.124;5.196;2023-05-07T08:21:19;16.90;99.90
20735;DHT22;10528;52.124;5.196;2023-05-07T08:23:46;16.90;99.90
20735;DHT22;10528;52.124;5.196;2023-05-07T08:26:13;17.00;99.90
20735;DHT22;10528;52.124;5.196;2023-05-07T08:28:41;17.00;99.90
20735;DHT22;10528;52.124;5.196;2023-05-07T08:31:08;16.90;99.90
20735;DHT22;10528;52.124;5.196;2023-05-07T08:33:38;16.90;99.90
20735;DHT22;10528;52.124;5.196;2023-05-07T08:36:05;17.00;99.90
20735;DHT22;10528;52.124;5.196;2023-05-07T08:38:32;17.00;99.90
20735;DHT22;10528;52.124;5.196;2023-05-07T08:40:59;17.10;99.90
20735;DHT22;10528;52.124;5.196;2023-05-07T08:43:28;17.30;99.90
20735;DHT22;10528;52.124;5.196;2023-05-07T08:46:00;17.50;99.90
20735;DHT22;10528;52.124;5.196;2023-05-07T08:48:32;17.40;99.90
20735;DHT22;10528;52.124;5.196;2023-05-07T08:51:15;17.40;99.90
20735;DHT22;10528;52.124;5.196;2023-05-07T08:53:47;17.70;99.90
20735;DHT22;10528;52.124;5.196;2023-05-07T08:56:20;17.50;99.90
20735;DHT22;10528;52.124;5.196;2023-05-07T08:58:50;17.50;99.90
20735;DHT22;10528;52.124;5.196;2023-05-07T09:01:18;17.70;99.90
20735;DHT22;10528;52.124;5.196;2023-05-07T09:03:49;17.60;99.90
20735;DHT22;10528;52.124;5.196;2023-05-07T09:06:18;17.80;99.90
20735;DHT22;10528;52.124;5.196;2023-05-07T09:08:55;17.80;99.90
20735;DHT22;10528;52.124;5.196;2023-05-07T09:11:25;18.00;99.90
20735;DHT22;10528;52.124;5.196;2023-05-07T09:13:56;18.00;99.90
20735;DHT22;10528;52.124;5.196;2023-05-07T09:16:25;18.10;99.90
20735;DHT22;10528;52.124;5.196;2023-05-07T09:18:54;18.00;99.90
20735;DHT22;10528;52.124;5.196;2023-05-07T09:21:22;18.00;99.90
20735;DHT22;10528;52.124;5.196;2023-05-07T09:23:54;18.30;99.90
20735;DHT22;10528;52.124;5.196;2023-05-07T09:26:31;18.20;99.90
20735;DHT22;10528;52.124;5.196;2023-05-07T09:28:59;18.20;99.90
20735;DHT22;10528;52.124;5.196;2023-05-07T09:31:27;18.00;99.90
20735;DHT22;10528;52.124;5.196;2023-05-07T09:33:55;17.90;99.90
20735;DHT22;10528;52.124;5.196;2023-05-07T09:36:25;18.10;99.90
20735;DHT22;10528;52.124;5.196;2023-05-07T09:38:53;18.10;99.90
20735;DHT22;10528;52.124;5.196;2023-05-07T09:41:20;18.10;99.90
20735;DHT22;10528;52.124;5.196;2023-05-07T09:44:12;18.10;99.90
20735;DHT22;10528;52.124;5.196;2023-05-07T09:46:46;18.40;99.90
20735;DHT22;10528;52.124;5.196;2023-05-07T09:49:24;18.60;99.90
20735;DHT22;10528;52.124;5.196;2023-05-07T09:52:00;18.80;99.90
20735;DHT22;10528;52.124;5.196;2023-05-07T09:54:34;18.90;99.90
20735;DHT22;10528;52.124;5.196;2023-05-07T09:57:05;19.10;99.90
20735;DHT22;10528;52.124;5.196;2023-05-07T09:59:34;19.00;99.90
20735;DHT22;10528;52.124;5.196;2023-05-07T10:02:09;19.00;99.90
20735;DHT22;10528;52.124;5.196;2023-05-07T10:04:46;19.10;99.90
20735;DHT22;10528;52.124;5.196;2023-05-07T10:07:18;18.90;99.90
20735;DHT22;10528;52.124;5.196;2023-05-07T10:09:48;19.40;99.90
20735;DHT22;10528;52.124;5.196;2023-05-07T10:12:24;19.50;99.90
20735;DHT22;10528;52.124;5.196;2023-05-07T10:14:52;19.30;99.90
20735;DHT22;10528;52.124;5.196;2023-05-07T10:17:23;19.20;99.90
20735;DHT22;10528;52.124;5.196;2023-05-07T10:19:53;19.20;99.90
20735;DHT22;10528;52.124;5.196;2023-05-07T10:22:22;19.30;99.90
20735;DHT22;10528;52.124;5.196;2023-05-07T10:24:52;19.50;99.90
20735;DHT22;10528;52.124;5.196;2023-05-07T10:27:22;19.40;99.90
20735;DHT22;10528;52.124;5.196;2023-05-07T10:30:13;19.50;99.90
20735;DHT22;10528;52.124;5.196;2023-05-07T10:32:54;19.70;99.90
20735;DHT22;10528;52.124;5.196;2023-05-07T10:35:30;20.30;99.90
20735;DHT22;10528;52.124;5.196;2023-05-07T10:38:03;20.30;99.90
20735;DHT22;10528;52.124;5.196;2023-05-07T10:40:34;20.30;99.90
20735;DHT22;10528;52.124;5.196;2023-05-07T10:43:04;20.60;99.90
20735;DHT22;10528;52.124;5.196;2023-05-07T10:46:11;20.20;99.90
20735;DHT22;10528;52.124;5.196;2023-05-07T10:52:24;20.30;99.90
20735;DHT22;10528;52.124;5.196;2023-05-07T10:57:52;20.60;99.90
20735;DHT22;10528;52.124;5.196;2023-05-07T11:03:07;20.70;99.90
20735;DHT22;10528;52.124;5.196;2023-05-07T11:05:43;21.10;99.90
20735;DHT22;10528;52.124;5.196;2023-05-07T11:08:24;20.70;99.90
20735;DHT22;10528;52.124;5.196;2023-05-07T11:11:01;21.00;99.90
20735;DHT22;10528;52.124;5.196;2023-05-07T11:13:47;21.00;99.90
20735;DHT22;10528;52.124;5.196;2023-05-07T11:16:29;21.20;99.90
20735;DHT22;10528;52.124;5.196;2023-05-07T11:19:04;21.30;99.90
20735;DHT22;10528;52.124;5.196;2023-05-07T11:21:41;21.50;99.90
20735;DHT22;10528;52.124;5.196;2023-05-07T11:24:16;21.30;99.90
20735;DHT22;10528;52.124;5.196;2023-05-07T11:26:50;21.40;99.90
20735;DHT22;10528;52.124;5.196;2023-05-07T11:29:20;21.30;99.90
20735;DHT22;10528;52.124;5.196;2023-05-07T11:31:54;21.40;99.90
20735;DHT22;10528;52.124;5.196;2023-05-07T11:34:26;21.30;99.90
20735;DHT22;10528;52.124;5.196;2023-05-07T11:36:56;21.40;99.90
20735;DHT22;10528;52.124;5.196;2023-05-07T11:39:37;21.50;99.90
20735;DHT22;10528;52.124;5.196;2023-05-07T11:42:04;21.70;99.90
20735;DHT22;10528;52.124;5.196;2023-05-07T11:44:44;21.30;99.90
20735;DHT22;10528;52.124;5.196;2023-05-07T11:47:17;21.80;99.90
20735;DHT22;10528;52.124;5.196;2023-05-07T11:49:50;22.10;99.90
20735;DHT22;10528;52.124;5.196;2023-05-07T11:52:19;22.00;99.90
20735;DHT22;10528;52.124;5.196;2023-05-07T11:57:22;21.80;99.90
20735;DHT22;10528;52.124;5.196;2023-05-07T12:00:02;21.60;99.90
20735;DHT22;10528;52.124;5.196;2023-05-07T12:02:40;22.10;99.90
20735;DHT22;10528;52.124;5.196;2023-05-07T12:05:08;21.90;99.90
20735;DHT22;10528;52.124;5.196;2023-05-07T12:07:36;21.80;99.90
20735;DHT22;10528;52.124;5.196;2023-05-07T12:10:06;21.70;99.90
20735;DHT22;10528;52.124;5.196;2023-05-07T12:12:41;21.70;99.90
20735;DHT22;10528;52.124;5.196;2023-05-07T12:15:11;21.90;99.90
20735;DHT22;10528;52.124;5.196;2023-05-07T12:17:42;22.00;99.90
20735;DHT22;10528;52.124;5.196;2023-05-07T12:20:09;21.70;99.90
20735;DHT22;10528;52.124;5.196;2023-05-07T12:22:36;21.70;99.90
20735;DHT22;10528;52.124;5.196;2023-05-07T12:25:04;21.60;99.90
20735;DHT22;10528;52.124;5.196;2023-05-07T12:27:32;21.70;99.90
20735;DHT22;10528;52.124;5.196;2023-05-07T12:29:59;21.90;99.90
20735;DHT22;10528;52.124;5.196;2023-05-07T12:32:25;21.80;99.90
20735;DHT22;10528;52.124;5.196;2023-05-07T12:34:52;22.20;99.90
20735;DHT22;10528;52.124;5.196;2023-05-07T12:37:24;22.20;99.90
20735;DHT22;10528;52.124;5.196;2023-05-07T12:42:36;22.30;99.90
20735;DHT22;10528;52.124;5.196;2023-05-07T12:45:10;22.20;99.90
20735;DHT22;10528;52.124;5.196;2023-05-07T12:47:38;22.20;99.90
20735;DHT22;10528;52.124;5.196;2023-05-07T12:50:06;22.20;99.90
20735;DHT22;10528;52.124;5.196;2023-05-07T12:52:34;22.10;99.90
20735;DHT22;10528;52.124;5.196;2023-05-07T12:55:05;22.20;99.90
20735;DHT22;10528;52.124;5.196;2023-05-07T12:57:39;22.20;99.90
20735;DHT22;10528;52.124;5.196;2023-05-07T13:00:08;22.00;99.90
20735;DHT22;10528;52.124;5.196;2023-05-07T13:02:40;22.00;99.90
20735;DHT22;10528;52.124;5.196;2023-05-07T13:05:08;22.00;99.90
20735;DHT22;10528;52.124;5.196;2023-05-07T13:07:36;22.20;99.90
20735;DHT22;10528;52.124;5.196;2023-05-07T13:10:04;22.40;99.90
20735;DHT22;10528;52.124;5.196;2023-05-07T13:12:32;22.40;99.90
20735;DHT22;10528;52.124;5.196;2023-05-07T13:14:59;22.30;99.90
20735;DHT22;10528;52.124;5.196;2023-05-07T13:17:26;22.30;99.90
20735;DHT22;10528;52.124;5.196;2023-05-07T13:19:53;22.10;99.90
20735;DHT22;10528;52.124;5.196;2023-05-07T13:22:19;22.10;99.90
20735;DHT22;10528;52.124;5.196;2023-05-07T13:24:46;22.20;99.90
20735;DHT22;10528;52.124;5.196;2023-05-07T13:27:13;21.90;99.90
20735;DHT22;10528;52.124;5.196;2023-05-07T13:29:40;22.00;99.90
20735;DHT22;10528;52.124;5.196;2023-05-07T13:32:07;22.20;99.90
20735;DHT22;10528;52.124;5.196;2023-05-07T13:34:34;22.00;99.90
20735;DHT22;10528;52.124;5.196;2023-05-07T13:37:01;21.80;99.90
20735;DHT22;10528;52.124;5.196;2023-05-07T13:39:28;21.60;99.90
20735;DHT22;10528;52.124;5.196;2023-05-07T13:41:54;21.30;99.90
20735;DHT22;10528;52.124;5.196;2023-05-07T13:44:21;21.50;99.90
20735;DHT22;10528;52.124;5.196;2023-05-07T13:46:48;21.60;99.90
20735;DHT22;10528;52.124;5.196;2023-05-07T13:49:15;21.70;99.90
20735;DHT22;10528;52.124;5.196;2023-05-07T13:51:42;21.70;99.90
20735;DHT22;10528;52.124;5.196;2023-05-07T13:54:09;22.10;99.90
20735;DHT22;10528;52.124;5.196;2023-05-07T13:56:36;21.90;99.90
20735;DHT22;10528;52.124;5.196;2023-05-07T13:59:03;21.90;99.90
20735;DHT22;10528;52.124;5.196;2023-05-07T14:01:30;22.10;99.90
20735;DHT22;10528;52.124;5.196;2023-05-07T14:03:57;22.30;99.90
20735;DHT22;10528;52.124;5.196;2023-05-07T14:06:26;22.30;99.90
20735;DHT22;10528;52.124;5.196;2023-05-07T14:08:53;22.40;99.90
20735;DHT22;10528;52.124;5.196;2023-05-07T14:11:20;22.30;99.90
20735;DHT22;10528;52.124;5.196;2023-05-07T14:13:47;22.40;99.90
20735;DHT22;10528;52.124;5.196;2023-05-07T14:16:15;22.40;99.90
20735;DHT22;10528;52.124;5.196;2023-05-07T14:18:41;22.40;99.90
20735;DHT22;10528;52.124;5.196;2023-05-07T14:21:08;22.20;99.90
20735;DHT22;10528;52.124;5.196;2023-05-07T14:23:36;22.10;99.90
20735;DHT22;10528;52.124;5.196;2023-05-07T14:26:03;22.20;99.90
20735;DHT22;10528;52.124;5.196;2023-05-07T14:28:30;22.10;99.90
20735;DHT22;10528;52.124;5.196;2023-05-07T14:30:57;22.10;99.90
20735;DHT22;10528;52.124;5.196;2023-05-07T14:33:24;22.10;99.90
20735;DHT22;10528;52.124;5.196;2023-05-07T14:35:51;22.00;99.90
20735;DHT22;10528;52.124;5.196;2023-05-07T14:38:19;21.90;99.90
20735;DHT22;10528;52.124;5.196;2023-05-07T14:40:45;21.70;99.90
20735;DHT22;10528;52.124;5.196;2023-05-07T14:43:12;21.70;99.90
20735;DHT22;10528;52.124;5.196;2023-05-07T14:45:39;21.60;99.90
20735;DHT22;10528;52.124;5.196;2023-05-07T14:48:06;21.40;99.90
20735;DHT22;10528;52.124;5.196;2023-05-07T14:50:35;21.40;99.90
20735;DHT22;10528;52.124;5.196;2023-05-07T14:53:02;21.50;99.90
20735;DHT22;10528;52.124;5.196;2023-05-07T14:55:30;21.50;99.90
20735;DHT22;10528;52.124;5.196;2023-05-07T14:57:59;21.10;99.90
20735;DHT22;10528;52.124;5.196;2023-05-07T15:00:28;20.70;99.90
20735;DHT22;10528;52.124;5.196;2023-05-07T15:03:06;20.50;99.90
20735;DHT22;10528;52.124;5.196;2023-05-07T15:05:35;20.20;99.90
20735;DHT22;10528;52.124;5.196;2023-05-07T15:08:02;20.10;99.90
20735;DHT22;10528;52.124;5.196;2023-05-07T15:10:29;19.90;99.90
20735;DHT22;10528;52.124;5.196;2023-05-07T15:12:56;19.80;99.90
20735;DHT22;10528;52.124;5.196;2023-05-07T15:15:23;19.70;99.90
20735;DHT22;10528;52.124;5.196;2023-05-07T15:17:52;19.50;99.90
20735;DHT22;10528;52.124;5.196;2023-05-07T15:20:19;19.30;99.90
20735;DHT22;10528;52.124;5.196;2023-05-07T15:22:46;19.10;99.90
20735;DHT22;10528;52.124;5.196;2023-05-07T15:25:13;18.80;99.90
20735;DHT22;10528;52.124;5.196;2023-05-07T15:27:41;18.70;99.90
20735;DHT22;10528;52.124;5.196;2023-05-07T15:30:08;18.40;99.90
20735;DHT22;10528;52.124;5.196;2023-05-07T15:32:37;18.20;99.90
20735;DHT22;10528;52.124;5.196;2023-05-07T15:35:05;18.20;99.90
20735;DHT22;10528;52.124;5.196;2023-05-07T15:37:33;18.00;99.90
20735;DHT22;10528;52.124;5.196;2023-05-07T15:40:00;17.80;99.90
20735;DHT22;10528;52.124;5.196;2023-05-07T15:42:28;17.90;99.90
20735;DHT22;10528;52.124;5.196;2023-05-07T15:44:56;17.70;99.90
20735;DHT22;10528;52.124;5.196;2023-05-07T15:47:23;17.70;99.90
20735;DHT22;10528;52.124;5.196;2023-05-07T15:49:50;17.50;99.90
20735;DHT22;10528;52.124;5.196;2023-05-07T15:52:17;17.60;99.90
20735;DHT22;10528;52.124;5.196;2023-05-07T15:54:44;17.60;99.90
20735;DHT22;10528;52.124;5.196;2023-05-07T15:57:11;17.60;99.90